Time;durP1;ratioP1;P1;durP2;ratioP2;P2;SDS_P1;SDS_P2;PMS_P1;PMS_P2;Temp;Humidity;BMP_temperature;BMP_pressure;BME280_temperature;BME280_humidity;BME280_pressure;Samples;Min_cycle;Max_cycle;Signal;HPM_P1;HPM_P2
2022/10/18 00:00:55;;;;;;;4.03;1.40;;;;;;;5.60;76.35;99780.50;4921736;28;20044;-84
2022/10/18 00:03:28;;;;;;;5.82;1.40;;;;;;;5.93;74.98;99794.19;4904234;28;20048;-81
2022/10/18 00:08:59;;;;;;;3.00;1.58;;;;;;;5.62;74.06;99692.41;4904105;28;20056;-86
2022/10/18 00:11:55;;;;;;;1.73;1.30;;;;;;;6.31;74.37;99785.34;4906461;28;20059;-86
2022/10/18 00:14:26;;;;;;;3.90;1.77;;;;;;;6.33;72.22;99778.41;4921278;28;20055;-86
2022/10/18 00:17:00;;;;;;;4.28;1.52;;;;;;;6.53;71.15;99787.81;4915802;28;20095;-86
2022/10/18 00:19:35;;;;;;;3.25;1.70;;;;;;;6.57;69.86;99771.34;4920327;28;20096;-87
2022/10/18 00:22:13;;;;;;;3.40;1.33;;;;;;;6.69;69.67;99784.22;4909162;28;20056;-88
2022/10/18 00:24:56;;;;;;;4.07;1.40;;;;;;;6.80;67.86;99776.34;4907251;28;20056;-88
2022/10/18 00:27:42;;;;;;;3.92;1.15;;;;;;;6.89;66.33;99792.69;4896908;28;20068;-88
2022/10/18 00:30:19;;;;;;;6.28;1.63;;;;;;;6.42;67.08;99638.22;4878517;28;20272;-87
2022/10/18 00:32:55;;;;;;;12.57;2.67;;;;;;;7.43;66.28;99757.50;4906284;28;20049;-87
2022/10/18 00:35:34;;;;;;;3.17;1.20;;;;;;;7.52;65.48;99753.06;4900928;28;20108;-87
2022/10/18 00:38:27;;;;;;;2.83;1.15;;;;;;;7.67;64.33;99749.41;4948924;22;20055;-61
2022/10/18 00:41:44;;;;;;;2.55;1.25;;;;;;;7.84;63.01;99732.69;4862202;28;20056;-61
2022/10/18 00:45:11;;;;;;;2.75;1.10;;;;;;;7.96;62.66;99753.34;4901351;28;20040;-61
2022/10/18 00:48:10;;;;;;;4.90;1.63;;;;;;;7.95;61.98;99754.25;4872618;28;20033;-62
2022/10/18 00:53:52;;;;;;;2.35;1.20;;;;;;;7.95;61.49;99741.22;4816883;28;20046;-61
2022/10/18 00:56:39;;;;;;;3.17;1.27;;;;;;;8.03;60.10;99731.56;4816193;28;20186;-62
2022/10/18 01:02:50;;;;;;;2.50;0.90;;;;;;;7.34;56.43;99680.50;4818676;28;20065;-63
2022/10/18 01:05:47;;;;;;;1.50;0.90;;;;;;;7.62;52.05;99717.41;4840337;28;20140;-62
2022/10/18 01:08:51;;;;;;;1.58;0.80;;;;;;;7.93;56.24;99727.38;4831659;28;20489;-63
2022/10/18 01:11:47;;;;;;;2.35;0.90;;;;;;;8.03;57.07;99721.16;4823778;28;20404;-62
2022/10/18 01:15:06;;;;;;;1.70;0.80;;;;;;;7.85;55.90;99700.63;4795574;28;20062;-63
2022/10/18 01:17:53;;;;;;;1.08;0.80;;;;;;;8.12;56.27;99710.63;4838297;28;20054;-63
2022/10/18 01:21:04;;;;;;;3.72;1.17;;;;;;;8.12;55.74;99691.56;4818871;28;20043;-62
2022/10/18 01:24:08;;;;;;;1.25;0.90;;;;;;;7.96;55.66;99711.72;4835935;28;20066;-62
2022/10/18 01:27:05;;;;;;;;;;;;;;;7.74;54.61;99717.25;4830448;28;20059;-63
2022/10/18 01:29:56;;;;;;;2.10;1.00;;;;;;;7.64;54.04;99710.44;4799114;28;19927;-62
2022/10/18 01:33:08;;;;;;;3.60;0.90;;;;;;;7.48;54.20;99708.91;4837300;28;20057;-62
2022/10/18 01:38:37;;;;;;;1.95;1.00;;;;;;;7.22;54.78;99650.34;4840785;28;20073;-63
2022/10/18 01:41:18;;;;;;;3.22;1.10;;;;;;;7.56;56.14;99649.88;4853237;28;20110;-62
2022/10/18 01:44:06;;;;;;;2.05;1.20;;;;;;;8.02;56.43;99670.00;4812461;28;20054;-62
2022/10/18 01:47:02;;;;;;;0.95;0.80;;;;;;;8.13;51.83;99678.50;4801739;28;20061;-62
2022/10/18 01:50:03;;;;;;;0.88;0.80;;;;;;;7.89;52.46;99690.16;4814385;28;20205;-62
2022/10/18 01:52:39;;;;;;;2.75;0.90;;;;;;;7.99;55.11;99685.69;4813868;28;20154;-63
2022/10/18 01:55:18;;;;;;;2.13;0.90;;;;;;;8.23;55.32;99678.38;4844747;28;20046;-62
2022/10/18 01:58:05;;;;;;;3.05;0.90;;;;;;;8.64;56.85;99681.16;4789935;28;20074;-62
2022/10/18 02:06:49;;;;;;;5.75;0.95;;;;;;;8.10;54.38;99668.16;4830493;28;20058;-64
2022/10/18 02:09:38;;;;;;;1.63;1.00;;;;;;;7.78;55.76;99672.09;4802782;28;20054;-63
2022/10/18 02:15:18;;;;;;;1.48;1.10;;;;;;;7.35;57.62;99651.03;4847343;28;20054;-61
2022/10/18 02:17:50;;;;;;;2.63;1.08;;;;;;;7.43;57.38;99654.38;4841174;28;20101;-62
2022/10/18 02:20:38;;;;;;;1.63;0.98;;;;;;;7.50;58.23;99644.75;4843651;28;20047;-62
2022/10/18 02:23:40;;;;;;;2.05;1.00;;;;;;;7.55;57.44;99640.38;4843859;28;20576;-62
2022/10/18 02:26:33;;;;;;;0.90;0.90;;;;;;;7.34;56.34;99644.13;4825533;28;20046;-61
2022/10/18 02:29:16;;;;;;;2.05;0.85;;;;;;;7.33;58.28;99658.84;4850548;28;20664;-61
2022/10/18 02:32:03;;;;;;;6.47;1.83;;;;;;;6.60;53.23;99646.72;4886827;28;20056;-63
2022/10/18 02:34:47;;;;;;;1.10;1.00;;;;;;;5.89;58.70;99651.59;4828685;28;20480;-61
2022/10/18 02:37:21;;;;;;;2.25;1.10;;;;;;;4.90;66.67;99627.97;4871589;28;20361;-63
2022/10/18 02:39:59;;;;;;;3.53;1.00;;;;;;;4.56;71.00;99659.09;4899712;28;20088;-65
2022/10/18 02:42:58;;;;;;;4.88;1.42;;;;;;;4.48;74.15;99666.84;4916452;28;20069;-63
2022/10/18 02:45:36;;;;;;;1.70;1.10;;;;;;;4.87;75.87;99643.50;4861808;28;20049;-61
2022/10/18 02:48:12;;;;;;;2.40;1.30;;;;;;;5.26;77.15;99662.31;4882592;28;20587;-62
2022/10/18 02:51:03;;;;;;;1.67;1.42;;;;;;;5.34;75.70;99682.16;4911620;28;20040;-62
2022/10/18 02:53:37;;;;;;;3.00;1.50;;;;;;;5.28;76.03;99694.28;4883691;28;20099;-61
2022/10/18 02:56:29;;;;;;;3.60;1.58;;;;;;;5.29;75.12;99683.03;4891848;28;20045;-62
2022/10/18 02:59:09;;;;;;;1.33;1.23;;;;;;;5.30;75.08;99696.00;4850344;28;20045;-61
2022/10/18 03:01:58;;;;;;;3.88;1.38;;;;;;;5.42;75.58;99700.25;4868962;28;21413;-61
2022/10/18 03:04:34;;;;;;;2.88;1.67;;;;;;;5.53;76.68;99697.63;4936304;28;20044;-62
2022/10/18 03:07:09;;;;;;;1.48;1.38;;;;;;;5.32;76.36;99649.38;4941572;28;20429;-63
2022/10/18 03:09:56;;;;;;;2.72;1.40;;;;;;;5.70;76.75;99684.56;4860303;28;20033;-62
2022/10/18 03:12:42;;;;;;;3.15;1.85;;;;;;;5.81;77.45;99677.56;4875910;28;20045;-62
2022/10/18 03:15:14;;;;;;;2.67;1.60;;;;;;;5.81;77.36;99673.25;4876232;28;20045;-62
2022/10/18 03:17:51;;;;;;;1.75;1.25;;;;;;;5.89;77.62;99656.78;4907201;28;20040;-62
2022/10/18 03:20:35;;;;;;;1.40;1.30;;;;;;;6.11;77.42;99670.50;4915761;28;20141;-62
2022/10/18 03:23:23;;;;;;;3.47;1.60;;;;;;;6.14;77.48;99665.25;4874304;28;20129;-61
2022/10/18 03:26:04;;;;;;;1.83;1.20;;;;;;;6.13;77.47;99660.97;4907295;28;20047;-62
2022/10/18 03:28:46;;;;;;;1.75;1.30;;;;;;;6.15;77.40;99646.25;4864226;28;20049;-62
2022/10/18 03:31:25;;;;;;;2.33;1.20;;;;;;;6.17;77.56;99639.31;4910163;28;20045;-62
2022/10/18 03:34:01;;;;;;;1.88;1.30;;;;;;;5.96;77.56;99602.28;4918304;28;20049;-61
2022/10/18 03:36:40;;;;;;;2.65;1.40;;;;;;;6.33;77.62;99640.91;4899904;28;20089;-61
2022/10/18 03:39:18;;;;;;;2.72;1.30;;;;;;;6.45;77.42;99630.41;4901439;28;20059;-62
2022/10/18 03:41:52;;;;;;;2.28;1.30;;;;;;;6.53;76.52;99619.09;4870834;28;20048;-62
2022/10/18 03:44:31;;;;;;;1.85;1.20;;;;;;;6.47;76.22;99628.66;4862138;28;20036;-62
2022/10/18 03:47:10;;;;;;;1.98;1.20;;;;;;;6.56;74.91;99635.47;4877094;28;20049;-62
2022/10/18 03:49:54;;;;;;;7.40;1.17;;;;;;;6.62;73.90;99621.59;4869649;28;20053;-61
2022/10/18 03:52:31;;;;;;;3.75;1.65;;;;;;;6.41;73.14;99582.00;4902701;28;20100;-62
2022/10/18 03:55:10;;;;;;;2.90;1.30;;;;;;;6.51;71.37;99613.91;4860380;28;20057;-62
2022/10/18 03:57:47;;;;;;;3.90;1.45;;;;;;;6.65;71.00;99611.19;4865012;28;20095;-62
2022/10/18 04:00:27;;;;;;;2.58;1.50;;;;;;;6.66;70.70;99618.97;4839344;28;20041;-62
2022/10/18 04:03:02;;;;;;;1.67;1.20;;;;;;;6.43;70.89;99585.44;4901862;28;20072;-63
2022/10/18 04:05:39;;;;;;;3.10;1.80;;;;;;;6.63;70.12;99618.13;4924471;28;20072;-61
2022/10/18 04:08:17;;;;;;;1.75;1.30;;;;;;;6.32;69.42;99592.47;4886505;28;20470;-61
2022/10/18 04:10:51;;;;;;;1.88;1.52;;;;;;;6.50;68.94;99626.91;4898280;28;20057;-61
2022/10/18 04:13:27;;;;;;;2.80;2.10;;;;;;;6.46;70.52;99626.94;4904176;28;20069;-61
2022/10/18 04:19:19;;;;;;;4.47;1.60;;;;;;;6.31;70.77;99627.06;4875200;28;20050;-62
2022/10/18 04:22:21;;;;;;;4.32;1.73;;;;;;;6.29;70.73;99623.66;4906787;28;20056;-61
2022/10/18 04:27:51;;;;;;;2.80;1.52;;;;;;;6.17;71.45;99592.63;4901732;28;20052;-62
2022/10/18 04:30:38;;;;;;;3.30;1.70;;;;;;;6.41;71.25;99633.88;4883600;28;20061;-62
2022/10/18 04:33:25;;;;;;;3.75;1.52;;;;;;;6.48;71.84;99630.38;4855704;28;20040;-62
2022/10/18 04:36:09;;;;;;;3.50;1.77;;;;;;;6.71;71.82;99624.06;4919361;28;20049;-61
2022/10/18 04:38:49;;;;;;;3.00;1.65;;;;;;;6.72;70.47;99602.44;4844671;28;20316;-62
2022/10/18 04:41:22;;;;;;;4.00;2.05;;;;;;;6.94;71.02;99608.25;4933795;28;20136;-61
2022/10/18 04:44:07;;;;;;;3.47;2.00;;;;;;;7.08;71.34;99623.66;4894469;28;20059;-62
2022/10/18 04:47:01;;;;;;;4.43;1.80;;;;;;;7.11;72.53;99610.63;4833374;28;20080;-62
2022/10/18 04:49:40;;;;;;;1.92;1.48;;;;;;;7.05;71.80;99615.91;4833539;28;20045;-61
2022/10/18 04:52:15;;;;;;;2.72;2.42;;;;;;;6.87;72.16;99624.78;4872175;28;20055;-63
2022/10/18 04:54:54;;;;;;;5.70;1.60;;;;;;;6.84;72.41;99623.09;4894607;28;20159;-61
2022/10/18 04:57:41;;;;;;;2.95;1.60;;;;;;;6.74;72.47;99624.06;5017523;28;20048;-61
2022/10/18 05:00:34;;;;;;;3.53;1.42;;;;;;;6.62;73.11;99626.78;5058635;28;20666;-62
2022/10/18 05:03:24;;;;;;;2.72;1.60;;;;;;;6.54;73.96;99628.56;4967067;28;20052;-61
2022/10/18 05:06:08;;;;;;;1.98;1.35;;;;;;;6.32;74.57;99639.19;5064776;28;20110;-62
2022/10/18 05:08:44;;;;;;;1.65;1.30;;;;;;;6.16;75.09;99638.44;5044821;28;20044;-63
2022/10/18 05:11:26;;;;;;;2.55;1.65;;;;;;;6.07;76.22;99648.91;5063456;28;20080;-62
2022/10/18 05:14:09;;;;;;;2.20;1.50;;;;;;;6.01;77.57;99649.78;4914095;28;20476;-62
2022/10/18 05:17:13;;;;;;;4.53;1.98;;;;;;;6.01;77.89;99667.94;4901237;28;20113;-62
2022/10/18 05:22:54;;;;;;;2.03;1.60;;;;;;;5.74;78.36;99655.16;4855387;28;20060;-61
2022/10/18 05:25:34;;;;;;;2.88;1.80;;;;;;;5.62;79.27;99640.56;4897522;28;20069;-61
2022/10/18 05:28:18;;;;;;;1.95;1.75;;;;;;;5.79;79.93;99663.75;4899841;28;20069;-61
2022/10/18 05:31:16;;;;;;;4.80;1.60;;;;;;;5.79;79.71;99658.56;4932243;28;20053;-61
2022/10/18 05:34:03;;;;;;;2.13;1.48;;;;;;;5.83;79.86;99660.28;4879094;28;20557;-62
2022/10/18 05:36:53;;;;;;;3.08;1.50;;;;;;;5.94;80.41;99663.72;4916385;28;20068;-62
2022/10/18 05:39:32;;;;;;;3.20;1.60;;;;;;;6.03;80.39;99668.81;4895513;28;20037;-61
2022/10/18 05:42:19;;;;;;;4.00;1.73;;;;;;;6.08;80.18;99678.28;4859634;28;20383;-61
2022/10/18 05:44:59;;;;;;;1.60;1.50;;;;;;;6.00;80.01;99676.63;4846798;28;20044;-63
2022/10/18 05:50:27;;;;;;;2.63;1.80;;;;;;;5.90;80.86;99672.34;4857423;28;20301;-61
2022/10/18 05:53:07;;;;;;;3.88;2.20;;;;;;;5.82;81.10;99681.91;4901931;28;20115;-62
2022/10/18 05:56:03;;;;;;;2.15;1.70;;;;;;;5.61;81.40;99644.84;4863813;28;20099;-62
2022/10/18 05:58:41;;;;;;;2.45;1.52;;;;;;;5.84;82.26;99669.78;4887552;28;20049;-61
2022/10/18 06:01:23;;;;;;;3.67;2.33;;;;;;;5.91;82.60;99668.84;4893686;28;20329;-61
2022/10/18 06:03:58;;;;;;;11.60;2.50;;;;;;;5.77;82.69;99678.50;4899587;28;20270;-61
2022/10/18 06:06:45;;;;;;;5.50;2.15;;;;;;;5.76;82.57;99694.88;4890135;28;20104;-62
2022/10/18 06:09:29;;;;;;;4.20;2.15;;;;;;;5.73;82.73;99694.91;4840767;28;20284;-62
2022/10/18 06:12:22;;;;;;;3.10;1.98;;;;;;;5.70;82.87;99700.13;4878751;28;20045;-62
2022/10/18 06:14:58;;;;;;;5.40;2.50;;;;;;;5.62;83.15;99693.25;4864810;28;20176;-63
2022/10/18 06:17:42;;;;;;;7.10;2.15;;;;;;;5.51;82.69;99697.59;4914875;28;20054;-61
2022/10/18 06:20:28;;;;;;;3.90;2.22;;;;;;;5.40;82.91;99696.81;4870374;28;20049;-61
2022/10/18 06:23:13;;;;;;;3.00;1.85;;;;;;;5.30;82.84;99696.00;4914616;28;20049;-61
2022/10/18 06:25:48;;;;;;;7.60;2.60;;;;;;;5.27;83.68;99701.19;4899800;28;20075;-61
2022/10/18 06:28:27;;;;;;;2.78;1.85;;;;;;;5.26;84.20;99708.94;4933543;28;20076;-61
2022/10/18 06:31:07;;;;;;;7.00;2.28;;;;;;;5.18;84.01;99707.25;4875758;28;20049;-61
2022/10/18 06:33:47;;;;;;;4.50;1.90;;;;;;;5.10;84.62;99709.00;4874452;28;20114;-62
2022/10/18 06:36:33;;;;;;;3.28;1.98;;;;;;;5.05;85.07;99725.44;4899004;28;20297;-62
2022/10/18 06:39:22;;;;;;;3.72;2.05;;;;;;;4.95;84.72;99709.06;4911838;28;20071;-61
2022/10/18 06:42:02;;;;;;;4.07;2.08;;;;;;;4.89;85.25;99706.47;4862932;28;20048;-62
2022/10/18 06:45:05;;;;;;;8.15;2.78;;;;;;;4.79;85.81;99712.53;4922100;28;20323;-62
2022/10/18 06:48:01;;;;;;;16.92;10.95;;;;;;;4.79;86.14;99707.34;4892620;28;20175;-63
2022/10/18 06:50:41;;;;;;;89.40;51.22;;;;;;;4.84;85.94;99722.03;4872630;28;20053;-62
2022/10/18 06:53:27;;;;;;;114.53;59.80;;;;;;;4.85;86.36;99728.06;4912302;28;20068;-63
2022/10/18 06:56:06;;;;;;;165.45;59.08;;;;;;;4.72;86.45;99728.09;4897174;28;20129;-62
2022/10/18 06:59:03;;;;;;;312.58;104.65;;;;;;;4.82;86.96;99738.41;4867114;28;20105;-62
2022/10/18 07:02:06;;;;;;;191.65;62.40;;;;;;;4.75;87.30;99743.59;4911516;28;20066;-63
2022/10/18 07:08:02;;;;;;;99.80;32.05;;;;;;;4.51;88.00;99728.09;4875920;28;25351;-62
2022/10/18 07:10:42;;;;;;;34.45;12.68;;;;;;;4.68;87.75;99767.75;4892085;28;20052;-62
2022/10/18 07:13:23;;;;;;;19.42;8.23;;;;;;;4.62;88.45;99765.19;4911754;28;20069;-62
2022/10/18 07:16:19;;;;;;;13.60;5.15;;;;;;;4.53;88.31;99768.63;4897486;28;20165;-62
2022/10/18 07:19:04;;;;;;;5.30;3.20;;;;;;;4.43;88.30;99773.81;4885599;28;20049;-63
2022/10/18 07:21:44;;;;;;;10.35;4.78;;;;;;;4.46;88.70;99776.38;4904338;28;20077;-63
2022/10/18 07:24:23;;;;;;;14.00;5.18;;;;;;;4.44;88.88;99783.28;4870282;28;20106;-63
2022/10/18 07:27:14;;;;;;;8.68;3.22;;;;;;;4.43;88.96;99786.72;4871586;28;20084;-63
2022/10/18 07:30:14;;;;;;;7.78;2.58;;;;;;;4.38;89.27;99799.66;4893669;28;20055;-62
2022/10/18 07:35:48;;;;;;;6.22;3.00;;;;;;;4.05;89.60;99779.78;4877625;28;20049;-62
2022/10/18 07:41:43;;;;;;;7.82;3.83;;;;;;;4.05;90.39;99801.31;4921505;28;20032;-62
2022/10/18 07:44:28;;;;;;;8.15;3.08;;;;;;;4.06;90.16;99781.50;4840037;28;20038;-62
2022/10/18 07:47:03;;;;;;;5.75;1.92;;;;;;;4.10;90.91;99772.91;4832845;28;20214;-62
2022/10/18 07:49:38;;;;;;;4.20;2.15;;;;;;;3.92;89.94;99726.31;4889090;28;20112;-62
2022/10/18 07:52:47;;;;;;;5.88;1.80;;;;;;;4.14;89.63;99779.78;4845064;28;20058;-63
2022/10/18 07:58:07;;;;;;;4.07;2.03;;;;;;;4.02;89.30;99795.25;4879197;28;20223;-62
2022/10/18 08:00:53;;;;;;;4.22;2.55;;;;;;;3.98;89.15;99798.72;4875088;28;20178;-63
2022/10/18 08:03:44;;;;;;;9.32;4.32;;;;;;;3.91;89.17;99803.00;4880068;28;20048;-63
2022/10/18 08:06:20;;;;;;;7.70;3.30;;;;;;;3.65;89.03;99753.81;4878866;28;20303;-63
2022/10/18 08:09:04;;;;;;;5.93;2.17;;;;;;;3.99;89.42;99814.22;4883706;28;20124;-63
2022/10/18 08:12:03;;;;;;;2.60;1.80;;;;;;;4.10;89.50;99816.84;4890726;28;20041;-62
2022/10/18 08:14:56;;;;;;;5.60;2.50;;;;;;;4.05;88.71;99805.63;4881702;28;20063;-61
2022/10/18 08:17:33;;;;;;;3.35;1.90;;;;;;;4.05;89.09;99810.81;4868769;28;20436;-61
2022/10/18 08:23:22;;;;;;;7.95;2.53;;;;;;;4.17;89.25;99815.13;4894107;28;20067;-61
2022/10/18 08:26:03;;;;;;;2.95;1.60;;;;;;;4.03;88.89;99786.66;4880162;28;20045;-62
2022/10/18 08:28:38;;;;;;;2.83;1.60;;;;;;;4.10;88.89;99811.69;4897837;28;20056;-62
2022/10/18 08:31:34;;;;;;;3.38;1.45;;;;;;;4.02;88.11;99806.50;4888687;28;20103;-62
2022/10/18 08:34:27;;;;;;;13.63;6.50;;;;;;;4.07;88.10;99819.44;4904099;28;20045;-61
2022/10/18 08:37:14;;;;;;;8.82;4.13;;;;;;;4.11;88.24;99826.31;4897030;28;20852;-61
2022/10/18 08:40:07;;;;;;;5.70;3.05;;;;;;;4.15;87.48;99828.06;4878588;28;20037;-62
2022/10/18 08:43:04;;;;;;;5.78;2.65;;;;;;;4.10;86.67;99824.59;4896485;28;20048;-62
2022/10/18 08:45:47;;;;;;;7.88;3.88;;;;;;;3.51;86.55;99727.06;4886872;28;20117;-62
2022/10/18 08:48:32;;;;;;;10.43;4.68;;;;;;;3.99;87.01;99831.44;4877435;28;20049;-64
2022/10/18 08:57:46;;;;;;;11.00;5.50;;;;;;;3.88;87.39;99832.28;4884717;28;20057;-63
2022/10/18 09:00:37;;;;;;;8.85;5.15;;;;;;;3.79;87.96;99819.31;4894560;28;20049;-62
2022/10/18 09:03:31;;;;;;;6.22;4.30;;;;;;;3.82;87.99;99845.19;4915808;28;20517;-62
2022/10/18 09:06:27;;;;;;;8.52;2.80;;;;;;;3.82;88.23;99844.31;4907731;28;20112;-63
2022/10/18 09:09:28;;;;;;;4.57;2.13;;;;;;;3.32;87.95;99770.91;4897479;28;20075;-63
2022/10/18 09:12:24;;;;;;;2.42;1.52;;;;;;;3.79;88.05;99850.31;4919511;28;20055;-64
2022/10/18 09:15:23;;;;;;;3.47;1.83;;;;;;;3.73;88.42;99845.16;4901444;28;21480;-63
2022/10/18 09:18:39;;;;;;;5.55;2.38;;;;;;;3.83;88.57;99846.91;4916012;28;20707;-63
2022/10/18 09:21:47;;;;;;;3.85;1.92;;;;;;;3.91;88.18;99846.09;4913459;28;20041;-63
2022/10/18 09:24:35;;;;;;;5.82;2.50;;;;;;;3.82;88.08;99845.19;4843718;28;20053;-64
2022/10/18 09:30:16;;;;;;;2.88;1.75;;;;;;;3.63;87.94;99833.91;4875226;28;20057;-63
2022/10/18 09:33:20;;;;;;;;;;;;;;;3.69;87.80;99843.38;4913216;28;20103;-64
2022/10/18 09:36:39;;;;;;;5.00;2.20;;;;;;;3.49;88.20;99803.69;4915806;28;19987;-64
2022/10/18 09:39:44;;;;;;;5.40;1.85;;;;;;;3.78;87.60;99848.59;4905102;28;20348;-64
2022/10/18 09:42:48;;;;;;;4.65;2.00;;;;;;;3.72;87.72;99853.75;4897305;28;20061;-64
2022/10/18 09:45:54;;;;;;;6.32;1.90;;;;;;;3.70;87.28;99850.31;4876993;28;20064;-63
2022/10/18 09:48:43;;;;;;;5.05;1.67;;;;;;;3.72;87.57;99839.97;4889534;28;20107;-64
2022/10/18 09:51:29;;;;;;;3.47;1.80;;;;;;;3.76;87.42;99839.97;4889459;28;20725;-64
2022/10/18 09:54:29;;;;;;;4.40;2.20;;;;;;;3.74;87.29;99852.03;4904670;28;20080;-64
2022/10/18 10:00:15;;;;;;;6.75;2.42;;;;;;;3.69;87.28;99838.22;4908045;28;20045;-65
2022/10/18 10:03:20;;;;;;;6.88;3.30;;;;;;;3.72;87.53;99848.59;4893297;28;20055;-66
2022/10/18 10:06:19;;;;;;;6.32;2.22;;;;;;;3.74;87.04;99862.38;4877437;28;20124;-64
2022/10/18 10:09:09;;;;;;;4.57;2.40;;;;;;;3.74;87.43;99857.19;4909218;28;20125;-64
2022/10/18 10:11:54;;;;;;;4.03;2.28;;;;;;;3.68;87.63;99841.69;4878125;28;20075;-64
2022/10/18 10:14:57;;;;;;;3.38;2.30;;;;;;;3.67;87.64;99855.47;4935397;28;20093;-63
2022/10/18 10:17:37;;;;;;;3.78;1.70;;;;;;;3.56;87.74;99841.63;4855917;28;20410;-65
2022/10/18 10:20:23;;;;;;;5.18;2.30;;;;;;;3.54;88.47;99843.31;4915234;28;20055;-63
2022/10/18 10:23:19;;;;;;;5.97;2.70;;;;;;;3.56;88.33;99841.63;4907423;28;20049;-65
2022/10/18 10:26:09;;;;;;;4.78;2.38;;;;;;;3.45;87.62;99844.16;4921370;28;20049;-66
2022/10/18 10:28:50;;;;;;;5.75;3.30;;;;;;;3.19;87.92;99815.56;4902572;28;20048;-67
2022/10/18 10:31:42;;;;;;;6.05;3.00;;;;;;;3.39;87.84;99850.13;4894425;28;20084;-65
2022/10/18 10:34:32;;;;;;;4.22;2.90;;;;;;;3.34;87.56;99850.94;4899918;28;20041;-64
2022/10/18 10:37:37;;;;;;;7.47;2.88;;;;;;;3.34;87.71;99846.66;4912163;28;20400;-64
2022/10/18 10:40:27;;;;;;;5.70;2.38;;;;;;;3.37;88.07;99846.69;4872568;28;20060;-64
2022/10/18 10:43:30;;;;;;;5.07;2.17;;;;;;;3.39;87.31;99860.44;4870271;28;20065;-65
2022/10/18 10:46:15;;;;;;;5.50;3.15;;;;;;;3.43;87.31;99857.03;4874136;28;20054;-66
2022/10/18 10:49:03;;;;;;;6.25;3.00;;;;;;;3.39;86.79;99857.88;4869690;28;20041;-65
2022/10/18 10:52:09;;;;;;;6.40;3.47;;;;;;;3.30;86.86;99850.09;4890106;28;20049;-64
2022/10/18 10:55:08;;;;;;;7.20;3.38;;;;;;;3.22;87.18;99862.06;4882042;28;20380;-65
2022/10/18 10:58:19;;;;;;;8.02;2.88;;;;;;;3.14;87.51;99868.88;4882872;28;20062;-66
2022/10/18 11:03:55;;;;;;;13.90;5.55;;;;;;;2.99;88.67;99855.00;4876599;28;20382;-65
2022/10/18 11:06:56;;;;;;;12.98;7.18;;;;;;;3.02;89.70;99865.38;4882874;28;20056;-64
2022/10/18 11:09:52;;;;;;;17.60;8.05;;;;;;;2.95;90.60;99868.75;4901173;28;20136;-66
2022/10/18 11:13:17;;;;;;;;;;;;;;;;;;;;;
2022/10/18 11:16:07;;;;;;;18.90;9.68;;;;;;;2.91;92.17;99867.00;4846330;28;20069;-64
2022/10/18 11:18:53;;;;;;;15.07;7.90;;;;;;;2.97;92.35;99886.81;4878268;28;20034;-67
2022/10/18 11:21:37;;;;;;;18.00;8.60;;;;;;;2.92;92.34;99894.53;4843927;28;20371;-67
2022/10/18 11:24:25;;;;;;;19.38;8.85;;;;;;;2.81;93.23;99919.38;4886247;28;20116;-65
2022/10/18 11:27:22;;;;;;;27.63;13.52;;;;;;;2.59;93.39;99926.03;4870371;28;20053;-66
2022/10/18 11:30:18;;;;;;;19.98;10.40;;;;;;;2.46;96.17;99904.41;4843764;28;20053;-67
2022/10/18 11:33:05;;;;;;;19.30;9.90;;;;;;;2.57;96.02;99902.81;4872168;28;20424;-65
2022/10/18 11:35:56;;;;;;;15.95;9.23;;;;;;;2.68;96.33;99910.66;4869303;28;20151;-67
2022/10/18 11:38:52;;;;;;;16.10;7.97;;;;;;;2.76;95.78;99921.91;4868462;28;20049;-65
2022/10/18 11:41:54;;;;;;;17.00;8.20;;;;;;;2.82;95.79;99918.50;4868466;28;20057;-66
2022/10/18 11:44:47;;;;;;;14.60;8.02;;;;;;;2.85;95.30;99918.56;4882195;28;20367;-65
2022/10/18 11:47:49;;;;;;;15.13;8.55;;;;;;;2.96;95.15;99922.09;4874184;28;20321;-66
2022/10/18 11:50:36;;;;;;;14.80;7.47;;;;;;;3.08;95.32;99920.47;4880367;28;20050;-65
2022/10/18 11:53:23;;;;;;;14.93;8.32;;;;;;;3.12;95.07;99922.22;4865311;28;20042;-65
2022/10/18 11:56:10;;;;;;;13.60;8.63;;;;;;;3.15;94.64;99917.09;4877904;28;20200;-65
2022/10/18 11:59:15;;;;;;;18.48;10.88;;;;;;;3.07;94.50;99911.00;4819945;28;20073;-67
2022/10/18 12:02:06;;;;;;;20.38;10.48;;;;;;;3.08;94.36;99925.66;4853096;28;20060;-65
2022/10/18 12:04:49;;;;;;;16.55;9.63;;;;;;;3.02;93.83;99924.75;4893153;28;20123;-65
2022/10/18 12:08:03;;;;;;;12.25;7.50;;;;;;;2.94;93.94;99928.94;4869642;28;20129;-64
2022/10/18 12:10:59;;;;;;;11.98;7.20;;;;;;;2.91;93.69;99923.75;4861212;28;20681;-65
2022/10/18 12:13:56;;;;;;;11.57;7.20;;;;;;;2.92;93.56;99925.50;4855735;28;20053;-65
2022/10/18 12:16:41;;;;;;;10.43;6.85;;;;;;;2.65;93.23;99879.69;4790039;28;20107;-65
2022/10/18 12:19:47;;;;;;;11.10;6.63;;;;;;;2.81;93.13;99911.63;4860156;28;20041;-65
2022/10/18 12:22:28;;;;;;;9.30;6.20;;;;;;;2.88;92.76;99933.22;4867627;28;20239;-66
2022/10/18 12:25:28;;;;;;;11.43;6.40;;;;;;;2.81;92.76;99911.63;4886863;28;20073;-65
2022/10/18 12:31:32;;;;;;;9.38;6.18;;;;;;;2.99;93.21;99953.09;4872519;28;20037;-65
2022/10/18 12:34:39;;;;;;;16.75;6.40;;;;;;;3.02;92.79;99953.13;4892613;28;20051;-65
2022/10/18 12:37:54;;;;;;;11.05;6.43;;;;;;;2.98;92.87;99966.84;4891439;28;20349;-68
2022/10/18 12:40:49;;;;;;;12.25;6.15;;;;;;;2.91;92.52;99965.06;4848152;28;20120;-67
2022/10/18 12:43:39;;;;;;;12.90;7.20;;;;;;;2.79;92.80;99939.13;4920942;28;20037;-67
2022/10/18 12:46:17;;;;;;;10.60;7.47;;;;;;;2.93;93.50;99960.78;4899093;28;20163;-67
2022/10/18 12:49:07;;;;;;;11.15;6.85;;;;;;;2.80;93.46;99938.31;4913845;28;20050;-67
2022/10/18 12:52:06;;;;;;;17.58;9.15;;;;;;;2.74;93.25;99956.28;4891827;28;20405;-66
2022/10/18 12:55:06;;;;;;;11.02;6.65;;;;;;;2.78;93.88;99952.91;4882080;28;20040;-67
2022/10/18 12:58:26;;;;;;;12.73;5.90;;;;;;;2.87;94.64;99955.56;4878578;28;20059;-67
2022/10/18 13:01:14;;;;;;;11.73;6.78;;;;;;;2.97;94.35;99964.25;4901781;28;20596;-67
2022/10/18 13:03:57;;;;;;;10.43;6.97;;;;;;;3.01;94.69;99972.03;4884628;28;20049;-67
2022/10/18 13:10:20;;;;;;;11.70;7.10;;;;;;;3.01;95.12;99972.03;4854103;28;20053;-67
2022/10/18 13:13:31;;;;;;;12.50;6.43;;;;;;;3.06;95.27;99968.66;4893274;28;20045;-68
2022/10/18 13:16:52;;;;;;;11.82;6.88;;;;;;;3.01;95.05;99961.72;4899507;28;20565;-67
2022/10/18 13:20:00;;;;;;;14.20;6.72;;;;;;;2.92;95.28;99946.16;4819849;28;20059;-68
2022/10/18 13:23:31;;;;;;;11.93;7.47;;;;;;;2.96;95.24;99945.31;4907498;28;20060;-68
2022/10/18 13:26:26;;;;;;;10.18;6.30;;;;;;;2.87;95.39;99932.34;4863681;28;20479;-68
2022/10/18 13:29:28;;;;;;;9.63;5.65;;;;;;;2.85;95.21;99949.53;4891202;28;20469;-68
2022/10/18 13:32:29;;;;;;;12.95;5.43;;;;;;;2.89;95.37;99956.44;4903896;28;20079;-67
2022/10/18 13:35:53;;;;;;;10.05;5.55;;;;;;;2.85;95.21;99954.69;4913173;28;20599;-66
2022/10/18 13:39:00;;;;;;;9.40;5.50;;;;;;;2.87;94.97;99953.00;4824615;28;20044;-66
2022/10/18 13:42:22;;;;;;;8.70;5.00;;;;;;;2.91;95.28;99957.31;4819031;28;20074;-66
2022/10/18 13:45:43;;;;;;;10.38;5.53;;;;;;;2.91;95.40;99957.31;4843616;28;20057;-67
2022/10/18 13:49:02;;;;;;;10.82;5.93;;;;;;;2.91;95.62;99959.91;4839906;28;20081;-67
2022/10/18 13:52:00;;;;;;;14.68;5.80;;;;;;;2.93;95.76;99957.34;4797370;28;20361;-67
2022/10/18 13:55:02;;;;;;;12.13;5.80;;;;;;;2.83;95.93;99940.91;4792091;28;20058;-67
2022/10/18 13:58:12;;;;;;;12.40;5.65;;;;;;;2.94;95.76;99959.91;4856322;28;20106;-67
2022/10/18 14:01:06;;;;;;;8.15;5.80;;;;;;;2.99;95.81;99960.81;4849197;28;20050;-68
2022/10/18 14:04:34;;;;;;;10.43;5.97;;;;;;;2.98;95.42;99966.84;4846145;28;20050;-66
2022/10/18 14:07:21;;;;;;;10.77;5.72;;;;;;;2.68;95.12;99909.78;4814945;28;20082;-66
2022/10/18 14:10:06;;;;;;;10.98;5.28;;;;;;;2.85;95.18;99953.84;4808659;28;20347;-67
2022/10/18 14:12:45;;;;;;;9.10;5.38;;;;;;;2.12;94.45;99844.75;4837033;28;20049;-67
2022/10/18 14:15:32;;;;;;;12.40;5.40;;;;;;;2.82;94.45;99964.97;4832363;28;20064;-67
2022/10/18 14:18:30;;;;;;;8.10;4.15;;;;;;;2.83;94.37;99951.22;4883597;28;20076;-67
2022/10/18 14:21:29;;;;;;;10.02;4.05;;;;;;;2.19;94.68;99847.38;4893270;28;20113;-68
2022/10/18 14:24:24;;;;;;;4.90;3.60;;;;;;;2.83;94.21;99961.53;4873161;28;20371;-68
2022/10/18 14:27:25;;;;;;;5.15;3.05;;;;;;;2.86;93.95;99959.00;4877218;28;20062;-65
2022/10/18 14:30:21;;;;;;;5.65;3.05;;;;;;;2.86;94.20;99946.09;4864789;28;20572;-65
2022/10/18 14:33:29;;;;;;;13.15;2.67;;;;;;;2.83;93.76;99946.06;4908270;28;20112;-67
2022/10/18 14:36:31;;;;;;;6.78;3.40;;;;;;;2.86;93.37;99938.34;4906941;28;20060;-67
2022/10/18 14:39:06;;;;;;;5.82;2.90;;;;;;;2.89;93.15;99961.59;4922786;28;20050;-67